Time;durP1;ratioP1;P1;durP2;ratioP2;P2;SDS_P1;SDS_P2;PMS_P1;PMS_P2;Temp;Humidity;BMP_temperature;BMP_pressure;BME280_temperature;BME280_humidity;BME280_pressure;Samples;Min_cycle;Max_cycle;Signal;HPM_P1;HPM_P2
2023/10/25 00:02:22;;;;;;;8.68;5.13;;;10.20;90.30;;;;;;6154248;23;20013;-93
2023/10/25 00:04:52;;;;;;;9.82;5.05;;;10.20;90.30;;;;;;6130006;23;20014;-93
2023/10/25 00:07:19;;;;;;;9.82;6.18;;;10.20;90.30;;;;;;6154484;23;20014;-94
2023/10/25 00:09:44;;;;;;;9.43;5.32;;;10.20;90.30;;;;;;6108034;23;20017;-93
2023/10/25 00:12:10;;;;;;;8.77;5.20;;;10.20;90.20;;;;;;6133472;23;20515;-93
2023/10/25 00:14:35;;;;;;;9.95;4.90;;;10.20;90.20;;;;;;6132995;23;20014;-94
2023/10/25 00:17:01;;;;;;;9.40;5.25;;;10.20;90.20;;;;;;6104959;23;20049;-92
2023/10/25 00:19:27;;;;;;;8.07;4.90;;;10.20;90.20;;;;;;6104546;23;20076;-93
2023/10/25 00:21:52;;;;;;;8.07;4.43;;;10.20;90.20;;;;;;6154788;23;20089;-92
2023/10/25 00:24:18;;;;;;;10.00;5.32;;;10.10;90.10;;;;;;6128561;23;20013;-93
2023/10/25 00:26:43;;;;;;;8.70;5.20;;;10.20;90.20;;;;;;6154059;23;20016;-92
2023/10/25 00:29:09;;;;;;;11.32;5.05;;;10.20;90.20;;;;;;6128349;23;20010;-92
2023/10/25 00:31:34;;;;;;;10.60;5.20;;;10.20;90.10;;;;;;6129313;23;20024;-94
2023/10/25 00:34:00;;;;;;;6.95;4.22;;;10.10;90.10;;;;;;6129674;23;20021;-94
2023/10/25 00:36:26;;;;;;;9.05;4.75;;;10.10;90.10;;;;;;6129002;23;20394;-95
2023/10/25 00:38:51;;;;;;;8.52;4.88;;;10.10;90.10;;;;;;6153654;23;20044;-93
2023/10/25 00:41:17;;;;;;;8.93;5.55;;;10.10;90.10;;;;;;6129953;23;20009;-93
2023/10/25 00:43:42;;;;;;;10.48;5.00;;;10.10;90.10;;;;;;6105690;23;20025;-93
2023/10/25 00:46:13;;;;;;;9.80;5.20;;;10.10;90.10;;;;;;6132860;23;20005;-93
2023/10/25 00:48:49;;;;;;;9.35;4.47;;;10.10;90.10;;;;;;6131582;23;20041;-92
2023/10/25 00:51:17;;;;;;;7.70;5.22;;;10.10;90.10;;;;;;6132933;23;20069;-92
2023/10/25 00:53:48;;;;;;;9.65;5.43;;;10.10;90.00;;;;;;6116293;23;20036;-92
2023/10/25 00:56:15;;;;;;;10.63;5.28;;;10.10;90.00;;;;;;6116194;23;20025;-92
2023/10/25 00:58:47;;;;;;;15.38;5.93;;;10.40;90.10;;;;;;6109620;23;20020;-94
2023/10/25 01:01:14;;;;;;;10.45;4.85;;;10.10;90.00;;;;;;6105305;23;20029;-93
2023/10/25 01:03:40;;;;;;;10.57;5.30;;;10.10;90.00;;;;;;6129431;23;20017;-94
2023/10/25 01:06:06;;;;;;;10.60;5.05;;;10.00;89.90;;;;;;6104687;23;20009;-92
2023/10/25 01:08:32;;;;;;;11.38;5.72;;;10.00;89.90;;;;;;6130884;23;20470;-93
2023/10/25 01:10:58;;;;;;;9.05;5.57;;;10.00;89.90;;;;;;6157111;23;20043;-94
2023/10/25 01:13:24;;;;;;;8.68;4.80;;;10.10;89.90;;;;;;6156976;23;20056;-92
2023/10/25 01:15:49;;;;;;;13.05;5.47;;;10.00;89.90;;;;;;6133089;23;20067;-93
2023/10/25 01:18:15;;;;;;;8.38;5.68;;;10.00;89.90;;;;;;6132763;23;20013;-93
2023/10/25 01:20:42;;;;;;;10.70;5.75;;;9.90;89.90;;;;;;6131908;23;20013;-92
2023/10/25 01:23:08;;;;;;;9.80;5.20;;;10.00;89.90;;;;;;6132563;23;20468;-93
2023/10/25 01:25:34;;;;;;;11.30;5.15;;;10.00;90.00;;;;;;6158131;23;20147;-93
2023/10/25 01:28:00;;;;;;;9.05;5.22;;;9.90;89.90;;;;;;6141900;23;20005;-93
2023/10/25 01:30:26;;;;;;;9.00;5.65;;;9.90;90.00;;;;;;6137209;23;20071;-94
2023/10/25 01:32:52;;;;;;;10.88;5.93;;;9.90;90.00;;;;;;6110237;23;20014;-92
2023/10/25 01:35:18;;;;;;;13.75;6.57;;;9.90;90.00;;;;;;6163082;23;20013;-89
2023/10/25 01:37:44;;;;;;;10.25;6.05;;;9.90;90.00;;;;;;6145650;23;20024;-92
2023/10/25 01:40:10;;;;;;;12.43;6.20;;;9.90;90.00;;;;;;6149387;23;20072;-91
2023/10/25 01:42:35;;;;;;;13.45;7.03;;;9.90;90.00;;;;;;6128343;23;20052;-92
2023/10/25 01:45:01;;;;;;;9.15;6.00;;;9.90;90.00;;;;;;6153995;23;20213;-93
2023/10/25 01:47:27;;;;;;;10.75;6.78;;;9.90;90.20;;;;;;6177511;23;20048;-93
2023/10/25 01:49:52;;;;;;;12.07;6.53;;;9.90;90.00;;;;;;6112044;23;20020;-92
2023/10/25 01:52:18;;;;;;;11.23;6.80;;;9.80;90.00;;;;;;6132546;23;20013;-93
2023/10/25 01:54:46;;;;;;;12.07;6.72;;;9.80;90.00;;;;;;6156751;23;20010;-94
2023/10/25 01:57:12;;;;;;;11.13;6.47;;;9.80;90.00;;;;;;6157058;23;20014;-93
2023/10/25 01:59:37;;;;;;;11.45;7.00;;;9.80;90.00;;;;;;6108303;23;20018;-93
2023/10/25 02:02:04;;;;;;;10.27;7.38;;;9.80;90.00;;;;;;6131689;23;20017;-93
2023/10/25 02:04:29;;;;;;;10.85;7.18;;;9.80;90.00;;;;;;6157658;23;20009;-94
2023/10/25 02:06:55;;;;;;;14.40;8.18;;;9.80;90.00;;;;;;6157152;23;20438;-94
2023/10/25 02:09:21;;;;;;;13.45;8.13;;;9.80;90.00;;;;;;6132227;23;20510;-92
2023/10/25 02:11:47;;;;;;;11.15;7.18;;;9.80;90.00;;;;;;6133829;23;20021;-94
2023/10/25 02:14:13;;;;;;;12.30;7.65;;;9.70;90.00;;;;;;6136187;23;20013;-93
2023/10/25 02:16:39;;;;;;;12.05;8.88;;;9.70;90.00;;;;;;6160648;23;20013;-94
2023/10/25 02:19:04;;;;;;;14.65;8.70;;;9.70;90.00;;;;;;6106940;23;20089;-92
2023/10/25 02:21:34;;;;;;;12.80;8.85;;;9.70;90.00;;;;;;6130415;23;20013;-95
2023/10/25 02:24:00;;;;;;;11.63;8.02;;;9.70;90.00;;;;;;6155166;23;20012;-94
2023/10/25 02:26:27;;;;;;;13.48;9.13;;;9.70;90.00;;;;;;6155129;23;20690;-93
2023/10/25 02:28:53;;;;;;;13.40;8.75;;;9.70;90.00;;;;;;6130503;23;20335;-93
2023/10/25 02:31:18;;;;;;;13.10;8.65;;;9.70;90.10;;;;;;6106107;23;20020;-94
2023/10/25 02:33:44;;;;;;;14.73;9.55;;;9.70;90.10;;;;;;6130396;23;20020;-93
2023/10/25 02:36:10;;;;;;;15.23;9.40;;;9.70;90.20;;;;;;6130856;23;20080;-92
2023/10/25 02:38:36;;;;;;;17.17;10.45;;;9.70;90.20;;;;;;6132947;23;20018;-94
2023/10/25 02:41:01;;;;;;;13.18;8.95;;;9.70;90.20;;;;;;6106384;23;20510;-93
2023/10/25 02:43:27;;;;;;;15.35;9.48;;;9.90;90.30;;;;;;6105832;23;20018;-92
2023/10/25 02:45:59;;;;;;;15.02;9.82;;;9.70;90.30;;;;;;6155099;23;20032;-93
2023/10/25 02:48:25;;;;;;;15.00;9.10;;;9.60;90.30;;;;;;6155168;23;20439;-95
2023/10/25 02:50:50;;;;;;;11.05;9.30;;;9.60;90.30;;;;;;6154713;23;20009;-93
2023/10/25 02:53:16;;;;;;;18.65;10.32;;;9.70;90.30;;;;;;6129330;23;20024;-94
2023/10/25 02:55:41;;;;;;;13.85;9.35;;;9.70;90.30;;;;;;6130279;23;20020;-96
2023/10/25 02:58:07;;;;;;;14.57;10.27;;;9.70;90.30;;;;;;6154771;23;20380;-93
2023/10/25 03:00:33;;;;;;;14.70;9.40;;;9.70;90.50;;;;;;6105827;23;20013;-94
2023/10/25 03:02:58;;;;;;;14.82;9.18;;;9.60;90.20;;;;;;6154958;23;20058;-94
2023/10/25 03:05:24;;;;;;;14.70;8.52;;;9.60;90.20;;;;;;6107524;23;20412;-94
2023/10/25 03:07:49;;;;;;;13.30;9.18;;;9.60;90.20;;;;;;6154109;23;20060;-94
2023/10/25 03:10:15;;;;;;;10.27;7.93;;;9.60;90.20;;;;;;6154349;23;20029;-94
2023/10/25 03:12:41;;;;;;;15.52;8.05;;;9.60;90.20;;;;;;6129843;23;20009;-93
2023/10/25 03:15:07;;;;;;;14.32;7.80;;;9.60;90.20;;;;;;6129940;23;20029;-94
2023/10/25 03:17:32;;;;;;;11.50;7.22;;;9.50;90.10;;;;;;6130167;23;20009;-94
2023/10/25 03:20:00;;;;;;;11.25;7.70;;;9.50;90.30;;;;;;6165982;23;20009;-92
2023/10/25 03:22:26;;;;;;;12.80;7.82;;;9.50;90.10;;;;;;6140390;23;20017;-94
2023/10/25 03:24:51;;;;;;;12.27;7.90;;;9.40;90.00;;;;;;6157142;23;20017;-94
2023/10/25 03:27:17;;;;;;;12.57;7.05;;;9.40;90.00;;;;;;6155256;23;20084;-94
2023/10/25 03:29:42;;;;;;;11.20;7.65;;;9.40;90.00;;;;;;6142668;23;20009;-89
2023/10/25 03:32:08;;;;;;;14.68;7.57;;;9.40;90.10;;;;;;6139587;23;20056;-93
2023/10/25 03:34:34;;;;;;;13.15;7.47;;;9.40;90.10;;;;;;6132186;23;20096;-94
2023/10/25 03:36:59;;;;;;;10.30;6.70;;;9.40;90.10;;;;;;6129804;23;20025;-92
2023/10/25 03:39:26;;;;;;;11.90;7.15;;;9.40;90.10;;;;;;6130639;23;20080;-93
2023/10/25 03:41:52;;;;;;;11.30;7.60;;;9.30;90.10;;;;;;6154757;23;20010;-93
2023/10/25 03:44:17;;;;;;;12.20;7.55;;;9.30;90.10;;;;;;6130257;23;20021;-93
2023/10/25 03:46:43;;;;;;;12.07;7.50;;;9.30;90.10;;;;;;6154726;23;20085;-93
2023/10/25 03:49:08;;;;;;;11.65;6.95;;;9.30;90.10;;;;;;6155431;23;20193;-94
2023/10/25 03:51:34;;;;;;;7.78;5.95;;;9.30;90.30;;;;;;6129940;23;20065;-94
2023/10/25 03:53:59;;;;;;;8.55;6.80;;;9.40;90.10;;;;;;6130104;23;20009;-94
2023/10/25 03:56:25;;;;;;;8.25;5.97;;;9.30;90.10;;;;;;6154496;23;20017;-94
2023/10/25 03:58:50;;;;;;;10.82;7.10;;;9.30;90.20;;;;;;6129733;23;20015;-94
2023/10/25 04:01:16;;;;;;;9.75;6.57;;;9.30;90.10;;;;;;6155067;23;20395;-94
2023/10/25 04:03:42;;;;;;;12.20;7.43;;;9.30;90.10;;;;;;6129879;23;20017;-94
2023/10/25 04:06:08;;;;;;;12.73;6.85;;;9.30;90.10;;;;;;6154371;23;20020;-95
2023/10/25 04:08:34;;;;;;;10.70;6.30;;;9.30;90.10;;;;;;6130376;23;20021;-95
2023/10/25 04:11:00;;;;;;;11.70;6.47;;;9.30;90.00;;;;;;6107006;23;20021;-95
2023/10/25 04:13:26;;;;;;;9.50;6.75;;;9.30;90.00;;;;;;6159861;23;20021;-94
2023/10/25 04:15:54;;;;;;;13.63;7.10;;;9.30;90.00;;;;;;6138836;23;20010;-94
2023/10/25 04:18:19;;;;;;;12.93;7.55;;;9.40;90.10;;;;;;6168536;23;20013;-95
2023/10/25 04:20:45;;;;;;;13.63;6.93;;;9.20;90.00;;;;;;6150743;23;20016;-95
2023/10/25 04:23:10;;;;;;;15.32;6.97;;;9.70;90.10;;;;;;6174722;23;20018;-95
2023/10/25 04:25:36;;;;;;;11.23;6.40;;;9.20;90.00;;;;;;6122608;23;20009;-95
2023/10/25 04:28:01;;;;;;;9.50;5.82;;;9.20;90.00;;;;;;6135381;23;20100;-95
2023/10/25 04:30:27;;;;;;;10.05;5.90;;;9.10;89.90;;;;;;6108611;23;20399;-96
2023/10/25 04:32:53;;;;;;;8.82;5.32;;;9.10;90.00;;;;;;6156167;23;20025;-95
2023/10/25 04:35:19;;;;;;;9.07;6.05;;;9.10;90.00;;;;;;6154083;23;20009;-94
2023/10/25 04:37:44;;;;;;;6.07;4.85;;;9.10;90.00;;;;;;6105382;23;20517;-95
2023/10/25 04:40:10;;;;;;;7.53;5.47;;;9.00;90.00;;;;;;6130116;23;20017;-95
2023/10/25 04:42:36;;;;;;;9.45;5.65;;;9.10;90.10;;;;;;6129232;23;20193;-96
2023/10/25 04:45:01;;;;;;;10.93;5.43;;;9.10;90.10;;;;;;6129380;23;20016;-96
2023/10/25 04:47:27;;;;;;;7.78;5.40;;;9.00;90.10;;;;;;6154419;23;20010;-95
2023/10/25 04:49:53;;;;;;;10.30;6.05;;;9.10;90.10;;;;;;6153750;23;20009;-95
2023/10/25 04:52:19;;;;;;;11.32;5.22;;;9.10;90.10;;;;;;6104875;23;20065;-96
2023/10/25 04:54:44;;;;;;;6.68;4.70;;;9.00;90.10;;;;;;6129257;23;20045;-95
2023/10/25 04:57:10;;;;;;;7.97;5.68;;;9.00;90.10;;;;;;6129754;23;20013;-96
2023/10/25 04:59:35;;;;;;;9.98;5.25;;;9.00;90.10;;;;;;6129510;23;20017;-96
2023/10/25 05:02:01;;;;;;;11.57;5.85;;;9.00;90.10;;;;;;6129469;23;20117;-95
2023/10/25 05:04:26;;;;;;;9.30;5.53;;;9.00;90.10;;;;;;6153688;23;20013;-95
2023/10/25 05:06:53;;;;;;;10.35;5.72;;;9.00;90.10;;;;;;6154769;23;20016;-96
2023/10/25 05:09:19;;;;;;;9.13;5.80;;;9.00;90.10;;;;;;6129135;23;20018;-96
2023/10/25 05:11:59;;;;;;;11.85;5.25;;;9.00;90.10;;;;;;6130271;23;20535;-96
2023/10/25 05:14:25;;;;;;;12.25;5.85;;;9.00;90.10;;;;;;6156317;23;20045;-95
2023/10/25 05:16:51;;;;;;;9.18;5.90;;;8.90;90.00;;;;;;6174048;23;20025;-94
2023/10/25 05:19:16;;;;;;;12.95;6.30;;;8.90;90.00;;;;;;6146972;23;20013;-94
2023/10/25 05:21:43;;;;;;;11.70;6.20;;;8.90;90.00;;;;;;6141013;23;20009;-95
2023/10/25 05:24:09;;;;;;;12.40;5.75;;;8.90;90.00;;;;;;6163327;23;20390;-93
2023/10/25 05:26:35;;;;;;;10.27;5.88;;;8.90;90.10;;;;;;6144447;23;20041;-96
2023/10/25 05:29:01;;;;;;;9.95;5.70;;;8.80;90.00;;;;;;6148339;23;20014;-96
2023/10/25 05:31:27;;;;;;;12.75;6.60;;;8.80;90.10;;;;;;6125957;23;20443;-95
2023/10/25 05:33:53;;;;;;;10.38;6.78;;;8.80;90.10;;;;;;6160688;23;20064;-96
2023/10/25 05:36:19;;;;;;;9.93;6.10;;;8.90;90.10;;;;;;6130341;23;20446;-94
2023/10/25 05:38:45;;;;;;;12.90;6.50;;;8.80;90.10;;;;;;6130536;23;20079;-94
2023/10/25 05:41:18;;;;;;;12.68;6.63;;;8.80;90.10;;;;;;6129844;23;20017;-92
2023/10/25 05:43:53;;;;;;;12.93;7.20;;;8.80;90.10;;;;;;6106428;23;20025;-95
2023/10/25 05:46:18;;;;;;;12.18;6.97;;;8.80;90.20;;;;;;6130718;23;20014;-96
2023/10/25 05:48:44;;;;;;;13.25;6.57;;;8.80;90.20;;;;;;6154421;23;20507;-95
2023/10/25 05:51:10;;;;;;;12.85;7.45;;;8.80;90.20;;;;;;6154596;23;20009;-94
2023/10/25 05:53:36;;;;;;;13.50;7.85;;;8.70;90.20;;;;;;6129326;23;20052;-96
2023/10/25 05:56:02;;;;;;;14.20;6.72;;;8.80;90.20;;;;;;6130982;23;20020;-93
2023/10/25 05:58:28;;;;;;;13.00;7.15;;;8.70;90.20;;;;;;6156083;23;20108;-93
2023/10/25 06:00:55;;;;;;;11.10;7.03;;;8.70;90.20;;;;;;6107023;23;20112;-92
2023/10/25 06:03:22;;;;;;;11.35;6.53;;;8.70;90.30;;;;;;6130700;23;20096;-93
2023/10/25 06:05:52;;;;;;;13.45;7.55;;;8.70;90.50;;;;;;6131374;23;20025;-94
2023/10/25 06:08:18;;;;;;;11.18;6.25;;;8.60;90.30;;;;;;6155600;23;20013;-93
2023/10/25 06:10:44;;;;;;;14.82;7.40;;;8.60;90.30;;;;;;6156006;23;20053;-93
2023/10/25 06:13:10;;;;;;;14.38;7.40;;;8.60;90.30;;;;;;6131298;23;20014;-93
2023/10/25 06:15:37;;;;;;;14.45;7.90;;;8.60;90.30;;;;;;6158330;23;20021;-93
2023/10/25 06:18:07;;;;;;;11.07;6.78;;;8.50;90.50;;;;;;6160960;23;20121;-93
2023/10/25 06:20:34;;;;;;;11.80;6.93;;;8.50;90.30;;;;;;6112228;23;20388;-93
2023/10/25 06:23:00;;;;;;;15.77;7.88;;;8.50;90.30;;;;;;6108072;23;20010;-92
2023/10/25 06:25:27;;;;;;;12.57;7.07;;;8.50;90.60;;;;;;6154850;23;20014;-93
2023/10/25 06:27:53;;;;;;;11.95;6.93;;;8.50;90.40;;;;;;6106270;23;20013;-93
2023/10/25 06:30:18;;;;;;;16.20;7.43;;;8.50;90.40;;;;;;6105681;23;20052;-92
2023/10/25 06:32:44;;;;;;;10.82;6.78;;;8.50;90.40;;;;;;6154689;23;20017;-92
2023/10/25 06:35:09;;;;;;;16.40;7.93;;;8.50;90.40;;;;;;6130337;23;20443;-92
2023/10/25 06:37:35;;;;;;;14.18;7.95;;;8.40;90.40;;;;;;6130560;23;20024;-93
2023/10/25 06:40:01;;;;;;;12.30;6.95;;;8.40;90.40;;;;;;6130608;23;20013;-94
2023/10/25 06:42:28;;;;;;;14.38;7.53;;;8.40;90.40;;;;;;6130141;23;20014;-93
2023/10/25 06:44:54;;;;;;;10.15;6.45;;;8.40;90.40;;;;;;6154798;23;20021;-93
2023/10/25 06:47:20;;;;;;;11.80;6.72;;;8.50;90.50;;;;;;6155351;23;20009;-94
2023/10/25 06:49:45;;;;;;;13.20;7.47;;;8.40;90.50;;;;;;6156396;23;20022;-92
2023/10/25 06:52:11;;;;;;;9.95;6.13;;;8.50;90.50;;;;;;6158130;23;20093;-93
2023/10/25 06:54:37;;;;;;;11.75;6.90;;;8.50;90.50;;;;;;6175334;23;20017;-93
2023/10/25 06:57:03;;;;;;;10.27;6.80;;;8.40;90.50;;;;;;6152352;23;20017;-92
2023/10/25 06:59:29;;;;;;;10.95;6.70;;;8.40;90.40;;;;;;6148463;23;20129;-92
2023/10/25 07:02:11;;;;;;;9.32;6.70;;;8.40;90.40;;;;;;6157628;23;20097;-93
2023/10/25 07:04:37;;;;;;;9.43;6.55;;;8.40;90.40;;;;;;6105884;23;20496;-92
2023/10/25 07:07:09;;;;;;;15.82;7.55;;;8.40;90.30;;;;;;6105704;23;20088;-92
2023/10/25 07:09:35;;;;;;;10.93;6.72;;;8.40;90.40;;;;;;6132791;23;20017;-90
2023/10/25 07:12:00;;;;;;;14.23;7.05;;;8.40;90.30;;;;;;6159923;23;20020;-89
2023/10/25 07:14:26;;;;;;;11.38;6.90;;;8.40;90.40;;;;;;6156983;23;20029;-92
2023/10/25 07:16:51;;;;;;;10.43;7.38;;;8.40;90.40;;;;;;6106531;23;20009;-90
2023/10/25 07:19:17;;;;;;;10.73;6.90;;;8.40;90.40;;;;;;6157395;23;20010;-91
2023/10/25 07:21:42;;;;;;;11.68;6.97;;;8.30;90.30;;;;;;6106894;23;20015;-92
2023/10/25 07:24:08;;;;;;;11.73;7.38;;;8.30;90.40;;;;;;6130861;23;20505;-91
2023/10/25 07:26:34;;;;;;;12.48;7.63;;;8.30;90.40;;;;;;6130605;23;20009;-94
2023/10/25 07:29:00;;;;;;;11.13;6.85;;;8.30;90.50;;;;;;6105452;23;20064;-93
2023/10/25 07:31:25;;;;;;;12.32;7.72;;;8.30;90.50;;;;;;6130235;23;20346;-93
2023/10/25 07:33:51;;;;;;;15.15;7.72;;;8.30;90.60;;;;;;6129866;23;20307;-94
2023/10/25 07:36:16;;;;;;;13.45;7.40;;;8.30;90.60;;;;;;6154293;23;20013;-94
2023/10/25 07:38:42;;;;;;;12.35;7.43;;;8.30;90.70;;;;;;6154104;23;20410;-93
2023/10/25 07:41:08;;;;;;;12.98;8.13;;;8.30;90.70;;;;;;6154061;23;20013;-93
2023/10/25 07:43:33;;;;;;;11.50;8.40;;;8.30;90.80;;;;;;6153215;23;20014;-93
2023/10/25 07:45:59;;;;;;;16.10;8.45;;;8.30;90.80;;;;;;6129967;23;20435;-93
2023/10/25 07:48:24;;;;;;;12.07;8.15;;;8.40;90.90;;;;;;6154217;23;20010;-93
2023/10/25 07:50:50;;;;;;;13.18;8.07;;;8.40;90.90;;;;;;6154284;23;20048;-93
2023/10/25 07:53:15;;;;;;;11.57;7.95;;;8.40;90.90;;;;;;6154495;23;20021;-93
2023/10/25 07:55:41;;;;;;;11.25;8.13;;;8.40;91.00;;;;;;6154559;23;20017;-94
2023/10/25 07:58:07;;;;;;;11.50;8.48;;;8.40;91.00;;;;;;6129209;23;20100;-94
2023/10/25 08:00:33;;;;;;;12.88;8.00;;;8.40;91.10;;;;;;6105395;23;20017;-93
2023/10/25 08:02:59;;;;;;;12.00;7.65;;;8.50;91.10;;;;;;6154267;23;20014;-94
2023/10/25 08:05:25;;;;;;;14.95;8.93;;;8.50;91.20;;;;;;6129610;23;20097;-94
2023/10/25 08:07:51;;;;;;;11.55;8.48;;;8.50;91.20;;;;;;6105248;23;20071;-93
2023/10/25 08:10:17;;;;;;;20.08;13.23;;;8.60;91.30;;;;;;6129329;23;20013;-94
2023/10/25 08:12:43;;;;;;;12.25;8.32;;;8.60;91.30;;;;;;6105512;23;20096;-94
2023/10/25 08:15:08;;;;;;;9.32;7.57;;;8.60;91.30;;;;;;6155927;23;20312;-93
2023/10/25 08:17:34;;;;;;;12.30;8.52;;;8.60;91.40;;;;;;6107707;23;20036;-95
2023/10/25 08:20:00;;;;;;;13.25;7.85;;;8.70;91.40;;;;;;6132625;23;20070;-94
2023/10/25 08:22:25;;;;;;;14.35;8.48;;;8.70;91.50;;;;;;6158122;23;20022;-93
2023/10/25 08:24:51;;;;;;;11.35;7.97;;;8.70;91.50;;;;;;6129791;23;20045;-95
2023/10/25 08:27:18;;;;;;;15.85;8.23;;;8.80;91.50;;;;;;6129388;23;20024;-94
2023/10/25 08:29:43;;;;;;;11.55;7.75;;;8.80;91.50;;;;;;6105318;23;20085;-93
2023/10/25 08:32:09;;;;;;;33.90;11.65;;;9.30;91.70;;;;;;6129475;23;20130;-93
2023/10/25 08:34:34;;;;;;;20.13;9.07;;;8.90;91.60;;;;;;6129075;23;20018;-92
2023/10/25 08:37:00;;;;;;;11.95;7.30;;;8.90;91.60;;;;;;6153997;23;20437;-93
2023/10/25 08:39:25;;;;;;;12.70;7.68;;;9.20;91.70;;;;;;6153965;23;20095;-92
2023/10/25 08:41:52;;;;;;;12.13;7.50;;;9.00;91.60;;;;;;6128897;23;20020;-93
2023/10/25 08:44:19;;;;;;;12.68;7.70;;;9.00;91.60;;;;;;6129191;23;20084;-94
2023/10/25 08:46:46;;;;;;;11.27;7.80;;;9.10;91.60;;;;;;6153612;23;20017;-91
2023/10/25 08:49:11;;;;;;;13.13;7.60;;;9.10;91.60;;;;;;6128541;23;20009;-93
2023/10/25 08:51:37;;;;;;;13.95;7.60;;;9.10;91.60;;;;;;6153153;23;20135;-93
2023/10/25 08:54:03;;;;;;;10.93;7.32;;;9.20;91.60;;;;;;6128760;23;20060;-92
2023/10/25 08:56:29;;;;;;;14.90;7.68;;;9.20;91.60;;;;;;6103596;23;20065;-91
2023/10/25 08:58:59;;;;;;;12.77;7.53;;;9.20;91.60;;;;;;6104156;23;20061;-92
2023/10/25 09:01:26;;;;;;;12.38;7.50;;;9.30;91.70;;;;;;6131188;23;20009;-90
2023/10/25 09:03:51;;;;;;;9.95;7.22;;;9.30;91.60;;;;;;6133637;23;20293;-94
2023/10/25 09:06:25;;;;;;;10.32;7.82;;;9.30;91.60;;;;;;6154960;23;20096;-92
2023/10/25 09:08:59;;;;;;;13.10;7.82;;;9.40;91.70;;;;;;6104916;23;20022;-94
2023/10/25 09:11:25;;;;;;;12.23;7.88;;;9.40;91.70;;;;;;6163604;23;20052;-91
2023/10/25 09:13:57;;;;;;;12.18;7.88;;;9.40;91.60;;;;;;6156022;23;20021;-91
2023/10/25 09:16:26;;;;;;;14.52;8.05;;;9.50;91.70;;;;;;6154932;23;20093;-92
2023/10/25 09:18:52;;;;;;;13.35;7.32;;;9.50;91.70;;;;;;6104124;23;20018;-92
2023/10/25 09:21:26;;;;;;;15.32;8.18;;;9.60;91.80;;;;;;6154033;23;20048;-92
2023/10/25 09:23:56;;;;;;;;;;;9.60;91.80;;;;;;6105193;23;20013;-92
2023/10/25 09:26:23;;;;;;;14.07;7.85;;;9.70;91.70;;;;;;6130020;23;19936;-92
2023/10/25 09:28:52;;;;;;;13.55;6.57;;;9.70;91.90;;;;;;6130444;23;20005;-89
2023/10/25 09:31:29;;;;;;;10.75;6.60;;;9.80;91.90;;;;;;6133199;23;20100;-94
2023/10/25 09:33:57;;;;;;;12.55;7.03;;;9.90;91.90;;;;;;6113474;23;20021;-92
2023/10/25 09:36:23;;;;;;;9.23;7.93;;;10.00;91.90;;;;;;6178918;23;20015;-93
2023/10/25 09:38:50;;;;;;;11.80;7.53;;;10.10;91.90;;;;;;6120956;23;20433;-93
2023/10/25 09:41:17;;;;;;;11.68;6.75;;;10.20;91.90;;;;;;6107154;23;20064;-93
2023/10/25 09:43:50;;;;;;;11.63;8.00;;;10.20;91.90;;;;;;6107904;23;20013;-93
2023/10/25 09:46:18;;;;;;;13.25;6.60;;;10.30;91.90;;;;;;6108852;23;20071;-92
2023/10/25 09:49:02;;;;;;;12.55;6.38;;;10.40;91.90;;;;;;6117465;23;20017;-92
2023/10/25 09:51:28;;;;;;;13.60;6.05;;;10.50;91.90;;;;;;6114416;23;20056;-92
2023/10/25 09:54:13;;;;;;;11.50;6.53;;;10.60;91.90;;;;;;6139241;23;20064;-92
2023/10/25 09:56:40;;;;;;;11.23;6.40;;;10.70;91.90;;;;;;6107915;23;20013;-93
2023/10/25 09:59:10;;;;;;;9.82;6.07;;;10.90;91.80;;;;;;6157394;23;20021;-93
2023/10/25 10:01:38;;;;;;;10.23;6.40;;;10.90;91.80;;;;;;6155178;23;20021;-93
2023/10/25 10:04:28;;;;;;;13.45;5.43;;;11.00;91.70;;;;;;6130997;23;20069;-94
2023/10/25 10:07:21;;;;;;;9.20;5.53;;;11.10;91.50;;;;;;6156157;23;20010;-93
2023/10/25 10:10:01;;;;;;;11.75;5.57;;;11.20;91.50;;;;;;6130320;23;20525;-92
2023/10/25 10:12:27;;;;;;;11.88;5.63;;;11.30;91.30;;;;;;6155063;23;20036;-93
2023/10/25 10:14:53;;;;;;;12.00;6.35;;;11.30;91.10;;;;;;6130868;23;20050;-93
2023/10/25 10:17:18;;;;;;;10.25;5.68;;;11.40;91.00;;;;;;6155370;23;20447;-93
2023/10/25 10:19:46;;;;;;;9.90;5.50;;;11.40;91.00;;;;;;6130555;23;20610;-94
2023/10/25 10:22:13;;;;;;;9.13;5.60;;;12.00;91.00;;;;;;6132448;23;20049;-93
2023/10/25 10:24:53;;;;;;;7.40;4.97;;;11.60;90.70;;;;;;6112148;23;20014;-93
2023/10/25 10:27:26;;;;;;;11.88;5.97;;;11.60;90.60;;;;;;6141431;23;20017;-92
2023/10/25 10:29:52;;;;;;;11.03;5.63;;;11.70;90.50;;;;;;6157902;23;20014;-93
2023/10/25 10:32:18;;;;;;;12.52;5.63;;;11.70;90.40;;;;;;6131947;23;20028;-93
2023/10/25 10:34:47;;;;;;;9.23;5.15;;;11.70;90.40;;;;;;6155335;23;20018;-94
2023/10/25 10:37:17;;;;;;;8.77;4.68;;;11.80;90.30;;;;;;6154647;23;20049;-93
2023/10/25 10:40:00;;;;;;;8.85;5.13;;;11.80;90.20;;;;;;6130779;23;20109;-92
2023/10/25 10:42:30;;;;;;;9.85;5.38;;;11.90;89.70;;;;;;6155128;23;20025;-91
2023/10/25 10:45:00;;;;;;;10.05;5.03;;;11.90;89.50;;;;;;6155273;23;20022;-91
2023/10/25 10:47:38;;;;;;;9.52;5.28;;;11.90;89.30;;;;;;6131347;23;20040;-93
2023/10/25 10:50:10;;;;;;;8.70;5.00;;;11.90;89.00;;;;;;6132888;23;20056;-89
2023/10/25 10:52:35;;;;;;;10.73;5.80;;;12.00;88.80;;;;;;6156994;23;20013;-92
2023/10/25 10:55:01;;;;;;;9.60;5.50;;;11.90;88.60;;;;;;6154855;23;20010;-92
2023/10/25 10:57:26;;;;;;;9.77;5.35;;;12.50;88.80;;;;;;6154675;23;20510;-92
2023/10/25 10:59:53;;;;;;;9.23;5.78;;;12.50;88.60;;;;;;6130673;23;20018;-90
2023/10/25 11:02:19;;;;;;;9.10;5.13;;;11.90;88.20;;;;;;6130186;23;20400;-92
2023/10/25 11:04:45;;;;;;;13.02;6.05;;;12.30;88.80;;;;;;6130136;23;20023;-93
2023/10/25 11:07:10;;;;;;;11.13;5.55;;;11.90;88.00;;;;;;6154037;23;20014;-92
2023/10/25 11:09:36;;;;;;;9.40;4.93;;;11.90;87.90;;;;;;6154276;23;20451;-92
2023/10/25 11:12:14;;;;;;;7.75;4.63;;;11.90;87.90;;;;;;6129654;23;20028;-91
2023/10/25 11:14:45;;;;;;;10.70;5.30;;;11.90;87.70;;;;;;6153783;23;20018;-92
2023/10/25 11:17:12;;;;;;;12.80;5.55;;;11.90;87.70;;;;;;6154516;23;20060;-91
2023/10/25 11:19:38;;;;;;;10.02;5.22;;;12.50;88.00;;;;;;6105257;23;20105;-92
2023/10/25 11:22:04;;;;;;;9.93;6.07;;;11.90;87.60;;;;;;6129540;23;20293;-93
2023/10/25 11:24:29;;;;;;;8.45;5.40;;;11.90;87.50;;;;;;6129612;23;20148;-93
2023/10/25 11:26:56;;;;;;;8.32;5.43;;;11.90;87.50;;;;;;6154563;23;20005;-92
2023/10/25 11:29:22;;;;;;;12.23;5.60;;;11.90;87.60;;;;;;6154303;23;20084;-92
2023/10/25 11:31:49;;;;;;;12.25;5.30;;;11.90;87.60;;;;;;6129906;23;20080;-92
2023/10/25 11:34:19;;;;;;;9.02;5.40;;;11.90;87.70;;;;;;6154427;23;20453;-92
2023/10/25 11:36:47;;;;;;;9.63;5.15;;;12.00;87.80;;;;;;6154420;23;20089;-91
2023/10/25 11:39:13;;;;;;;10.15;5.10;;;11.90;87.80;;;;;;6129332;23;20021;-91
2023/10/25 11:41:39;;;;;;;8.45;4.80;;;11.90;87.70;;;;;;6154072;23;20010;-94
2023/10/25 11:44:04;;;;;;;11.02;4.78;;;12.40;88.00;;;;;;6154448;23;20098;-93
2023/10/25 11:46:35;;;;;;;8.70;4.72;;;11.90;87.70;;;;;;6154432;23;20482;-92
2023/10/25 11:49:02;;;;;;;8.45;5.10;;;11.90;87.70;;;;;;6129667;23;20052;-90
2023/10/25 11:51:28;;;;;;;8.07;4.13;;;11.90;87.70;;;;;;6154186;23;20338;-92
2023/10/25 11:53:54;;;;;;;9.15;4.75;;;12.20;87.90;;;;;;6105405;23;20022;-92
2023/10/25 11:56:21;;;;;;;8.25;4.68;;;11.90;87.80;;;;;;6129457;23;20069;-94
2023/10/25 11:58:47;;;;;;;6.88;4.57;;;11.90;87.80;;;;;;6154202;23;20356;-92
2023/10/25 12:01:13;;;;;;;10.55;5.50;;;11.90;87.80;;;;;;6154668;23;20006;-93
2023/10/25 12:03:40;;;;;;;9.35;5.30;;;11.90;87.90;;;;;;6154171;23;20335;-93
2023/10/25 12:06:06;;;;;;;10.05;5.93;;;11.90;87.90;;;;;;6105828;23;20073;-94
2023/10/25 12:08:31;;;;;;;12.18;6.00;;;11.80;87.90;;;;;;6157362;23;20054;-94
2023/10/25 12:10:57;;;;;;;8.15;5.35;;;11.90;88.00;;;;;;6157677;23;20073;-94
2023/10/25 12:13:23;;;;;;;10.07;5.90;;;11.80;88.10;;;;;;6139061;23;20016;-95
2023/10/25 12:15:48;;;;;;;11.00;5.93;;;11.80;88.20;;;;;;6124013;23;20028;-96
2023/10/25 12:18:15;;;;;;;8.20;5.65;;;11.90;88.40;;;;;;6150153;23;20061;-95
2023/10/25 12:20:40;;;;;;;12.43;6.20;;;11.80;88.50;;;;;;6174052;23;20061;-96
2023/10/25 12:23:06;;;;;;;8.48;5.97;;;11.80;88.70;;;;;;6144688;23;20021;-96
2023/10/25 12:25:34;;;;;;;8.35;6.13;;;11.80;88.80;;;;;;6161441;23;20036;-96
2023/10/25 12:28:01;;;;;;;8.57;6.30;;;11.80;88.90;;;;;;6167770;23;20033;-96
2023/10/25 12:30:26;;;;;;;7.63;5.93;;;11.80;89.00;;;;;;6168904;23;20029;-95
2023/10/25 12:32:53;;;;;;;11.93;6.63;;;11.80;89.20;;;;;;6159750;23;20022;-96
2023/10/25 12:35:19;;;;;;;7.90;6.28;;;11.80;89.30;;;;;;6155274;23;20450;-95
2023/10/25 12:37:45;;;;;;;10.30;7.07;;;11.80;89.30;;;;;;6105757;23;20018;-96
2023/10/25 12:40:11;;;;;;;10.43;6.95;;;11.80;89.40;;;;;;6138011;23;20045;-95
2023/10/25 12:42:37;;;;;;;9.05;6.47;;;11.80;89.50;;;;;;6178602;23;20020;-96
2023/10/25 12:45:03;;;;;;;11.43;7.00;;;11.80;89.60;;;;;;6113921;23;20014;-95